Time;durP1;ratioP1;P1;durP2;ratioP2;P2;SDS_P1;SDS_P2;PMS_P1;PMS_P2;Temp;Humidity;BMP_temperature;BMP_pressure;BME280_temperature;BME280_humidity;BME280_pressure;Samples;Min_cycle;Max_cycle;Signal;HPM_P1;HPM_P2
2022/12/04 00:00:44;;;;;;;23.43;14.10;;;4.20;99.90;;;;;;5052222;28;20261;-55
2022/12/04 00:03:11;;;;;;;22.57;13.73;;;4.20;99.90;;;;;;5051489;28;20236;-56
2022/12/04 00:05:38;;;;;;;24.60;14.47;;;4.20;99.90;;;;;;5052038;28;20220;-56
2022/12/04 00:08:05;;;;;;;25.03;15.17;;;4.10;99.90;;;;;;5052242;28;20241;-56
2022/12/04 00:10:31;;;;;;;22.07;13.87;;;4.20;99.90;;;;;;5055894;28;20681;-56
2022/12/04 00:12:59;;;;;;;20.83;13.20;;;4.30;99.90;;;;;;5055674;28;20597;-54
2022/12/04 00:15:26;;;;;;;21.47;12.83;;;4.30;99.90;;;;;;5055778;28;20205;-56
2022/12/04 00:17:53;;;;;;;18.87;12.27;;;4.40;99.90;;;;;;5056163;28;20225;-55
2022/12/04 00:20:20;;;;;;;23.00;12.73;;;4.40;99.90;;;;;;5056086;28;20209;-56
2022/12/04 00:22:46;;;;;;;21.70;13.50;;;4.50;99.90;;;;;;5055379;28;20229;-55
2022/12/04 00:25:13;;;;;;;19.20;11.70;;;4.60;99.90;;;;;;5055681;28;20210;-55
2022/12/04 00:27:40;;;;;;;21.23;13.03;;;4.60;99.90;;;;;;5055379;28;20713;-56
2022/12/04 00:30:09;;;;;;;19.27;12.17;;;4.60;99.90;;;;;;5055595;28;20209;-56
2022/12/04 00:32:36;;;;;;;19.17;11.70;;;4.60;99.90;;;;;;5054865;28;20201;-57
2022/12/04 00:35:03;;;;;;;20.97;11.97;;;4.50;99.90;;;;;;5055798;28;20572;-56
2022/12/04 00:37:32;;;;;;;18.40;11.47;;;4.50;99.90;;;;;;5055648;28;20229;-55
2022/12/04 00:39:58;;;;;;;20.03;12.37;;;4.50;99.90;;;;;;5056101;28;20205;-55
2022/12/04 00:42:25;;;;;;;18.20;10.97;;;4.60;99.90;;;;;;5055438;28;20225;-55
2022/12/04 00:44:52;;;;;;;17.47;11.63;;;4.70;99.90;;;;;;5056418;28;20205;-56
2022/12/04 00:47:20;;;;;;;19.77;12.13;;;4.70;99.90;;;;;;5056201;28;20309;-56
2022/12/04 00:49:47;;;;;;;18.57;11.30;;;4.70;99.90;;;;;;5056328;28;20209;-56
2022/12/04 00:52:13;;;;;;;19.33;11.00;;;4.70;99.90;;;;;;5055497;28;20669;-56
2022/12/04 00:54:40;;;;;;;16.30;10.87;;;4.60;99.90;;;;;;5056156;28;20316;-55
2022/12/04 00:57:07;;;;;;;17.37;11.63;;;4.60;99.90;;;;;;5055055;28;20213;-56
2022/12/04 00:59:33;;;;;;;20.97;12.77;;;4.50;99.90;;;;;;5054749;28;20202;-56
2022/12/04 01:02:00;;;;;;;18.70;11.53;;;4.50;99.90;;;;;;5054802;28;20240;-55
2022/12/04 01:04:28;;;;;;;18.50;11.03;;;4.40;99.90;;;;;;5055030;28;20209;-56
2022/12/04 01:06:55;;;;;;;19.17;11.27;;;4.40;99.90;;;;;;5054778;28;20209;-57
2022/12/04 01:09:22;;;;;;;19.57;11.47;;;4.40;99.90;;;;;;5054714;28;20213;-55
2022/12/04 01:11:48;;;;;;;18.97;11.47;;;4.40;99.90;;;;;;5054286;28;20202;-55
2022/12/04 01:14:15;;;;;;;19.13;11.70;;;4.50;99.90;;;;;;5054743;28;20206;-57
2022/12/04 01:16:42;;;;;;;18.80;12.30;;;4.40;99.90;;;;;;5054906;28;20209;-56
2022/12/04 01:19:11;;;;;;;19.57;11.67;;;4.50;99.90;;;;;;5054809;28;20229;-54
2022/12/04 01:21:39;;;;;;;17.43;10.97;;;4.40;99.90;;;;;;5054402;28;20669;-55
2022/12/04 01:24:07;;;;;;;20.50;12.20;;;4.40;99.90;;;;;;5054005;28;20574;-55
2022/12/04 01:26:34;;;;;;;18.07;11.23;;;4.50;99.90;;;;;;5054204;28;20228;-57
2022/12/04 01:29:01;;;;;;;19.93;11.63;;;4.50;99.90;;;;;;5087105;22;20226;-62
2022/12/04 01:31:28;;;;;;;18.90;11.90;;;4.50;99.90;;;;;;5069710;28;20710;-62
2022/12/04 01:33:55;;;;;;;18.20;11.30;;;4.40;99.90;;;;;;5073638;28;20208;-62
2022/12/04 01:36:24;;;;;;;17.90;11.43;;;4.40;99.90;;;;;;5074033;28;20201;-62
2022/12/04 01:38:53;;;;;;;19.70;11.47;;;4.40;99.90;;;;;;5074079;28;20738;-62
2022/12/04 01:41:22;;;;;;;18.90;12.40;;;4.50;99.90;;;;;;5073843;28;20204;-62
2022/12/04 01:44:11;;;;;;;19.17;12.23;;;4.50;99.90;;;;;;5073612;28;20229;-62
2022/12/04 01:46:38;;;;;;;18.03;11.33;;;4.50;99.90;;;;;;5074324;28;20209;-62
2022/12/04 01:49:06;;;;;;;19.17;12.23;;;4.40;99.90;;;;;;5073978;28;20225;-62
2022/12/04 01:51:37;;;;;;;20.70;12.20;;;4.40;99.90;;;;;;5073907;28;20220;-62
2022/12/04 01:54:09;;;;;;;20.47;12.10;;;4.40;99.90;;;;;;5073308;28;20205;-62
2022/12/04 01:56:40;;;;;;;18.97;12.27;;;4.50;99.90;;;;;;5073899;28;20204;-63
2022/12/04 01:59:09;;;;;;;18.57;11.63;;;4.50;99.90;;;;;;5073825;28;20303;-62
2022/12/04 02:01:40;;;;;;;21.33;13.27;;;4.60;99.90;;;;;;5073810;28;20201;-62
2022/12/04 02:04:07;;;;;;;19.07;11.63;;;4.60;99.90;;;;;;5072860;28;20229;-62
2022/12/04 02:06:33;;;;;;;20.60;11.97;;;4.70;99.90;;;;;;5073360;28;20216;-62
2022/12/04 02:09:00;;;;;;;19.87;12.93;;;4.70;99.90;;;;;;5073573;28;20228;-62
2022/12/04 02:11:37;;;;;;;22.97;13.50;;;4.70;99.90;;;;;;5073570;28;20209;-63
2022/12/04 02:14:16;;;;;;;19.60;11.67;;;4.70;99.90;;;;;;5072896;28;20200;-63
2022/12/04 02:16:48;;;;;;;20.03;12.13;;;4.70;99.90;;;;;;5073268;28;20212;-62
2022/12/04 02:19:51;;;;;;;18.77;12.27;;;4.70;99.90;;;;;;5073370;28;20232;-62
2022/12/04 02:22:30;;;;;;;18.47;11.57;;;4.70;99.90;;;;;;5072598;28;20232;-63
2022/12/04 02:25:04;;;;;;;18.57;11.60;;;4.70;99.90;;;;;;5072959;28;20548;-63
2022/12/04 02:27:51;;;;;;;20.50;13.37;;;4.70;99.90;;;;;;5072829;28;20577;-63
2022/12/04 02:30:18;;;;;;;20.07;11.83;;;4.80;99.90;;;;;;5073232;28;20220;-63
2022/12/04 02:32:50;;;;;;;19.87;12.47;;;4.90;99.90;;;;;;5071841;28;20212;-63
2022/12/04 02:35:25;;;;;;;21.93;12.57;;;5.00;99.90;;;;;;5073089;28;20680;-63
2022/12/04 02:37:57;;;;;;;23.70;14.57;;;5.00;99.90;;;;;;5072927;28;20224;-63
2022/12/04 02:40:27;;;;;;;20.90;13.03;;;5.00;99.90;;;;;;5072878;28;20231;-63
2022/12/04 02:43:01;;;;;;;20.23;12.83;;;5.00;99.90;;;;;;5072233;28;20565;-63
2022/12/04 02:45:32;;;;;;;19.93;12.53;;;4.90;99.90;;;;;;5072761;28;20216;-63
2022/12/04 02:48:01;;;;;;;21.63;13.40;;;4.90;99.90;;;;;;5072951;28;20335;-63
2022/12/04 02:50:29;;;;;;;21.03;13.40;;;4.80;99.90;;;;;;5072909;28;20220;-64
2022/12/04 02:53:01;;;;;;;22.40;13.40;;;4.90;99.90;;;;;;5072289;28;20205;-63
2022/12/04 02:55:33;;;;;;;20.43;13.13;;;4.90;99.90;;;;;;5072618;28;20211;-63
2022/12/04 02:58:07;;;;;;;20.43;13.37;;;4.90;99.90;;;;;;5072356;28;20275;-63
2022/12/04 03:00:36;;;;;;;19.47;13.03;;;4.90;99.90;;;;;;5072245;28;20201;-64
2022/12/04 03:03:08;;;;;;;23.20;14.37;;;4.90;99.90;;;;;;5072116;28;20224;-63
2022/12/04 03:05:41;;;;;;;22.77;13.10;;;4.90;99.90;;;;;;5073063;28;20674;-64
2022/12/04 03:08:13;;;;;;;19.33;13.20;;;4.90;99.90;;;;;;5072453;28;20225;-63
2022/12/04 03:10:46;;;;;;;22.40;13.13;;;4.80;99.90;;;;;;5072419;28;20212;-63
2022/12/04 03:13:19;;;;;;;22.87;14.37;;;4.90;99.90;;;;;;5071964;28;20197;-64
2022/12/04 03:15:49;;;;;;;21.33;14.10;;;4.90;99.90;;;;;;5072293;28;20205;-63
2022/12/04 03:18:20;;;;;;;21.43;14.33;;;4.90;99.90;;;;;;5072120;28;20316;-63
2022/12/04 03:20:50;;;;;;;22.80;14.23;;;4.90;99.90;;;;;;5072337;28;20212;-63
2022/12/04 03:23:20;;;;;;;23.23;14.77;;;4.90;99.90;;;;;;5071651;28;20594;-63
2022/12/04 03:25:56;;;;;;;23.90;13.87;;;4.90;99.90;;;;;;5072193;28;20209;-64
2022/12/04 03:28:31;;;;;;;21.03;13.27;;;4.90;99.90;;;;;;5072020;28;20251;-63
2022/12/04 03:31:03;;;;;;;21.73;14.30;;;4.90;99.90;;;;;;5072154;28;20205;-64
2022/12/04 03:33:35;;;;;;;23.17;14.07;;;4.90;99.90;;;;;;5071442;28;20204;-64
2022/12/04 03:36:09;;;;;;;22.80;14.43;;;4.80;99.90;;;;;;5071924;28;20216;-64
2022/12/04 03:38:41;;;;;;;23.40;13.57;;;4.90;99.90;;;;;;5071763;28;20704;-63
2022/12/04 03:41:17;;;;;;;21.27;14.17;;;4.90;99.90;;;;;;5072008;28;20228;-64
2022/12/04 03:43:50;;;;;;;21.97;14.70;;;4.80;99.90;;;;;;5071333;28;20224;-63
2022/12/04 03:46:26;;;;;;;21.17;14.57;;;4.90;99.90;;;;;;5071717;28;20676;-64
2022/12/04 03:48:59;;;;;;;22.57;14.83;;;4.90;99.90;;;;;;5071821;28;20742;-63
2022/12/04 03:51:33;;;;;;;21.03;14.13;;;5.00;99.90;;;;;;5071824;28;20204;-64
2022/12/04 03:54:05;;;;;;;22.80;14.77;;;5.10;99.90;;;;;;5071410;28;20212;-64
2022/12/04 03:56:35;;;;;;;21.87;13.57;;;5.10;99.90;;;;;;5071749;28;20224;-64
2022/12/04 03:59:10;;;;;;;19.33;12.67;;;5.00;99.90;;;;;;5071734;28;20225;-64
2022/12/04 04:01:39;;;;;;;21.57;13.83;;;5.00;99.90;;;;;;5071960;28;20211;-64
2022/12/04 04:04:10;;;;;;;20.67;14.00;;;5.00;99.90;;;;;;5071188;28;20239;-63
2022/12/04 04:06:40;;;;;;;21.50;13.73;;;5.00;99.90;;;;;;5071743;28;20216;-63
2022/12/04 04:09:10;;;;;;;21.90;13.33;;;5.00;99.90;;;;;;5071510;28;20225;-63
2022/12/04 04:11:43;;;;;;;19.93;13.23;;;4.90;99.90;;;;;;5071868;28;20215;-64
2022/12/04 04:25:27;;;;;;;21.83;14.10;;;4.80;99.90;;;;;;5071565;28;20288;-64
2022/12/04 04:27:55;;;;;;;22.07;14.10;;;4.80;99.90;;;;;;5071174;28;20258;-63
2022/12/04 04:30:23;;;;;;;22.53;14.83;;;4.80;99.90;;;;;;5071671;28;20208;-63
2022/12/04 04:32:55;;;;;;;22.13;14.23;;;4.80;99.90;;;;;;5070968;28;20204;-64
2022/12/04 04:35:27;;;;;;;23.40;14.80;;;4.90;99.90;;;;;;5071560;28;20208;-64
2022/12/04 04:38:01;;;;;;;21.50;14.57;;;5.00;99.90;;;;;;5071266;28;20229;-64
2022/12/04 04:40:36;;;;;;;20.70;14.53;;;5.00;99.90;;;;;;5071230;28;20579;-64
2022/12/04 04:43:09;;;;;;;21.20;13.70;;;5.00;99.90;;;;;;5070694;28;20228;-64
2022/12/04 04:45:40;;;;;;;22.87;14.97;;;5.00;99.90;;;;;;5071434;28;20209;-64
2022/12/04 04:48:13;;;;;;;22.00;14.13;;;5.10;99.90;;;;;;5071495;28;20236;-62
2022/12/04 04:50:41;;;;;;;21.80;13.53;;;5.10;99.90;;;;;;5071185;28;20212;-62
2022/12/04 04:53:13;;;;;;;21.33;13.80;;;5.10;99.90;;;;;;5070421;28;20212;-62
2022/12/04 04:55:40;;;;;;;20.47;14.00;;;5.10;99.90;;;;;;5073061;28;20219;-62
2022/12/04 04:58:09;;;;;;;19.97;13.03;;;5.00;99.90;;;;;;5074748;28;20232;-62
2022/12/04 05:00:38;;;;;;;21.90;13.87;;;5.00;99.90;;;;;;5074675;28;20219;-62
2022/12/04 05:03:05;;;;;;;23.03;14.53;;;4.90;99.90;;;;;;5074079;28;20225;-62
2022/12/04 05:05:32;;;;;;;20.37;13.47;;;4.90;99.90;;;;;;5074461;28;20586;-62
2022/12/04 05:07:58;;;;;;;21.10;14.03;;;5.00;99.90;;;;;;5074661;28;20224;-62
2022/12/04 05:10:25;;;;;;;20.73;13.20;;;4.90;99.90;;;;;;5074601;28;20216;-62
2022/12/04 05:12:52;;;;;;;19.57;13.30;;;4.80;99.90;;;;;;5074412;28;20205;-62
2022/12/04 05:15:18;;;;;;;21.83;13.30;;;4.80;99.90;;;;;;5074539;28;20611;-62
2022/12/04 05:17:47;;;;;;;19.23;13.47;;;4.90;99.90;;;;;;5074271;28;20228;-62
2022/12/04 05:20:14;;;;;;;20.10;12.57;;;5.00;99.90;;;;;;5074424;28;20216;-62
2022/12/04 05:22:40;;;;;;;20.10;13.10;;;4.90;99.90;;;;;;5073891;28;20208;-62
2022/12/04 05:25:08;;;;;;;21.00;12.67;;;4.90;99.90;;;;;;5074306;28;20247;-62
2022/12/04 05:27:34;;;;;;;19.57;13.57;;;4.90;99.90;;;;;;5074004;28;20216;-62
2022/12/04 05:30:01;;;;;;;19.83;12.17;;;5.00;99.90;;;;;;5074392;28;20220;-62
2022/12/04 05:32:29;;;;;;;20.93;13.13;;;4.90;99.90;;;;;;5073497;28;20209;-62
2022/12/04 05:34:58;;;;;;;19.20;13.23;;;4.90;99.90;;;;;;5074481;28;20552;-62
2022/12/04 05:37:25;;;;;;;17.33;11.83;;;4.90;99.90;;;;;;5073903;28;20640;-62
2022/12/04 05:39:52;;;;;;;17.87;12.60;;;4.90;99.90;;;;;;5074033;28;20212;-62
2022/12/04 05:42:19;;;;;;;19.03;12.03;;;4.80;99.90;;;;;;5073337;28;20581;-62
2022/12/04 05:44:45;;;;;;;19.60;12.70;;;4.80;99.90;;;;;;5073765;28;20225;-62
2022/12/04 05:47:12;;;;;;;18.67;12.60;;;4.70;99.90;;;;;;5073768;28;20569;-62
2022/12/04 05:49:39;;;;;;;19.03;12.80;;;4.60;99.90;;;;;;5074094;28;20225;-62
2022/12/04 05:52:07;;;;;;;19.60;12.97;;;4.70;99.90;;;;;;5073846;28;20665;-62
2022/12/04 05:54:34;;;;;;;20.37;12.83;;;4.70;99.90;;;;;;5073164;28;20669;-62
2022/12/04 05:57:00;;;;;;;22.10;13.67;;;4.70;99.90;;;;;;5073783;28;20212;-62
2022/12/04 05:59:27;;;;;;;20.13;13.07;;;4.70;99.90;;;;;;5073717;28;20247;-62
2022/12/04 06:01:54;;;;;;;20.70;13.43;;;4.80;99.90;;;;;;5073570;28;20575;-62
2022/12/04 06:04:21;;;;;;;16.77;11.87;;;4.80;99.90;;;;;;5072832;28;20263;-62
2022/12/04 06:06:48;;;;;;;19.37;12.60;;;4.90;99.90;;;;;;5072496;28;20675;-62
2022/12/04 06:09:16;;;;;;;21.73;13.83;;;5.00;99.90;;;;;;5073223;28;20688;-62
2022/12/04 06:11:43;;;;;;;20.37;13.23;;;5.00;99.90;;;;;;5073494;28;20209;-62
2022/12/04 06:14:12;;;;;;;19.57;12.90;;;5.00;99.90;;;;;;5072761;28;20197;-63
2022/12/04 06:16:42;;;;;;;19.97;12.67;;;5.10;99.90;;;;;;5073643;28;20201;-63
2022/12/04 06:19:10;;;;;;;17.77;11.77;;;5.00;99.90;;;;;;5073676;28;20229;-63
2022/12/04 06:21:39;;;;;;;18.17;12.17;;;5.00;99.90;;;;;;5073526;28;20674;-63
2022/12/04 06:24:07;;;;;;;19.77;12.37;;;5.00;99.90;;;;;;5072835;28;20266;-63
2022/12/04 06:26:35;;;;;;;18.47;11.57;;;4.90;99.90;;;;;;5073162;28;20209;-63
2022/12/04 06:29:02;;;;;;;20.23;12.80;;;4.80;99.90;;;;;;5072961;28;20244;-63
2022/12/04 06:31:29;;;;;;;18.10;12.33;;;4.80;99.90;;;;;;5073485;28;20211;-63
2022/12/04 06:33:58;;;;;;;17.37;12.67;;;4.80;99.90;;;;;;5073023;28;20673;-63
2022/12/04 06:36:25;;;;;;;19.60;12.60;;;4.80;99.90;;;;;;5073980;28;20213;-63
2022/12/04 06:38:54;;;;;;;18.23;12.90;;;4.80;99.90;;;;;;5073514;28;20275;-63
2022/12/04 06:41:21;;;;;;;19.37;12.27;;;4.70;99.90;;;;;;5073169;28;20205;-63
2022/12/04 06:43:50;;;;;;;17.77;12.20;;;4.70;99.90;;;;;;5072747;28;20224;-62
2022/12/04 06:46:19;;;;;;;16.87;11.70;;;4.60;99.90;;;;;;5073130;28;20207;-63
2022/12/04 06:48:46;;;;;;;17.47;11.77;;;4.60;99.90;;;;;;5072770;28;20229;-63
2022/12/04 06:51:15;;;;;;;16.60;11.23;;;4.60;99.90;;;;;;5072672;28;20209;-62
2022/12/04 06:53:42;;;;;;;17.30;11.73;;;4.70;99.90;;;;;;5072041;28;20207;-63
2022/12/04 06:56:13;;;;;;;16.43;11.60;;;4.60;99.90;;;;;;5072545;28;20205;-63
2022/12/04 06:58:40;;;;;;;16.40;11.83;;;4.70;99.90;;;;;;5073010;28;20668;-63
2022/12/04 07:01:10;;;;;;;17.37;11.83;;;4.70;99.90;;;;;;5073421;28;20672;-63
2022/12/04 07:03:37;;;;;;;18.53;11.80;;;4.70;99.90;;;;;;5071975;28;20217;-63
2022/12/04 07:06:12;;;;;;;18.13;12.00;;;4.80;99.90;;;;;;5072716;28;20208;-63
2022/12/04 07:08:38;;;;;;;17.90;11.87;;;4.80;99.90;;;;;;5072232;28;20231;-63
2022/12/04 07:11:05;;;;;;;16.97;11.33;;;4.90;99.90;;;;;;5072497;28;20208;-63
2022/12/04 07:13:32;;;;;;;18.33;12.57;;;4.90;99.90;;;;;;5071728;28;20211;-64
2022/12/04 07:16:00;;;;;;;17.97;12.30;;;5.00;99.90;;;;;;5072600;28;20216;-63
2022/12/04 07:18:28;;;;;;;17.00;11.73;;;5.00;99.90;;;;;;5071939;28;20228;-62
2022/12/04 07:20:55;;;;;;;18.47;12.40;;;5.00;99.90;;;;;;5072167;28;20209;-63
2022/12/04 07:23:22;;;;;;;17.70;11.60;;;5.00;99.90;;;;;;5071754;28;20292;-63
2022/12/04 07:25:49;;;;;;;16.90;11.50;;;5.00;99.90;;;;;;5072272;28;20205;-63
2022/12/04 07:28:15;;;;;;;16.40;12.03;;;4.90;99.90;;;;;;5091081;22;20716;-58
2022/12/04 07:30:42;;;;;;;17.03;11.70;;;4.90;99.90;;;;;;5060888;28;20581;-57
2022/12/04 07:33:09;;;;;;;17.90;11.80;;;4.90;99.90;;;;;;5071100;28;20212;-58
2022/12/04 07:35:37;;;;;;;17.23;11.70;;;5.00;99.90;;;;;;5071628;28;20209;-58
2022/12/04 07:38:03;;;;;;;17.33;11.27;;;5.00;99.90;;;;;;5071806;28;20578;-58
2022/12/04 07:40:30;;;;;;;18.43;12.47;;;5.20;99.90;;;;;;5071860;28;20213;-57
2022/12/04 07:42:57;;;;;;;19.47;11.80;;;5.20;99.90;;;;;;5071267;28;20212;-58
2022/12/04 07:45:24;;;;;;;18.97;12.37;;;5.20;99.90;;;;;;5071619;28;20567;-58
2022/12/04 07:47:50;;;;;;;16.47;11.77;;;5.20;99.90;;;;;;5071379;28;20217;-57
2022/12/04 07:50:17;;;;;;;16.80;11.67;;;5.10;99.90;;;;;;5071731;28;20208;-58
2022/12/04 07:52:45;;;;;;;16.03;11.47;;;5.00;99.90;;;;;;5071361;28;20204;-58
2022/12/04 07:55:12;;;;;;;17.77;11.93;;;5.00;99.90;;;;;;5071556;28;20208;-58
2022/12/04 07:57:39;;;;;;;16.10;10.93;;;5.10;99.90;;;;;;5071466;28;20208;-56
2022/12/04 08:00:07;;;;;;;18.97;12.40;;;5.10;99.90;;;;;;5071654;28;20209;-58
2022/12/04 08:02:33;;;;;;;20.37;11.77;;;5.10;99.90;;;;;;5070793;28;20205;-58
2022/12/04 08:05:00;;;;;;;18.97;12.20;;;5.10;99.90;;;;;;5071604;28;20228;-58
2022/12/04 08:07:27;;;;;;;18.43;11.90;;;5.10;99.90;;;;;;5071417;28;20205;-58
2022/12/04 08:09:55;;;;;;;17.30;11.30;;;5.10;99.90;;;;;;5070950;28;20585;-58
2022/12/04 08:12:22;;;;;;;16.67;11.30;;;5.10;99.90;;;;;;5071434;28;20584;-58
2022/12/04 08:14:49;;;;;;;17.60;10.83;;;5.00;99.90;;;;;;5070722;28;20205;-58
2022/12/04 08:17:16;;;;;;;15.97;10.97;;;5.10;99.90;;;;;;5071310;28;20216;-56
2022/12/04 08:19:42;;;;;;;15.53;10.53;;;5.20;99.90;;;;;;5072314;28;20229;-58
2022/12/04 08:22:09;;;;;;;16.47;10.20;;;5.20;99.90;;;;;;5071412;28;20209;-56
2022/12/04 08:24:36;;;;;;;15.70;9.70;;;5.10;99.90;;;;;;5070856;28;20227;-57
2022/12/04 08:27:04;;;;;;;14.97;9.80;;;5.10;99.90;;;;;;5071176;28;20270;-57
2022/12/04 08:29:31;;;;;;;14.07;9.60;;;5.10;99.90;;;;;;5071230;28;20623;-57
2022/12/04 08:31:58;;;;;;;16.67;9.97;;;5.10;99.90;;;;;;5075344;28;20205;-57
2022/12/04 08:34:25;;;;;;;15.27;10.37;;;5.10;99.90;;;;;;5074310;28;20676;-58
2022/12/04 08:36:52;;;;;;;15.40;9.63;;;5.20;99.90;;;;;;5074930;28;20212;-57
2022/12/04 08:39:18;;;;;;;18.13;10.67;;;5.30;99.90;;;;;;5074957;28;20221;-57
2022/12/04 08:41:45;;;;;;;15.95;10.48;;;5.40;99.90;;;;;;5073940;28;20508;-57
2022/12/04 08:44:13;;;;;;;15.53;10.47;;;5.40;99.90;;;;;;5074136;28;20216;-56
2022/12/04 08:46:40;;;;;;;15.63;10.37;;;5.40;99.90;;;;;;5070821;28;20205;-58
2022/12/04 08:49:07;;;;;;;14.80;9.83;;;5.50;99.90;;;;;;5073658;28;20664;-56
2022/12/04 08:51:34;;;;;;;15.10;9.70;;;5.60;99.90;;;;;;5073739;28;20213;-55
2022/12/04 08:54:04;;;;;;;15.27;10.30;;;5.70;99.90;;;;;;5072628;28;20274;-55
2022/12/04 08:56:31;;;;;;;12.67;9.03;;;5.80;99.90;;;;;;5073424;28;20209;-55
2022/12/04 08:58:59;;;;;;;15.30;9.70;;;5.80;99.90;;;;;;5073509;28;20725;-55
2022/12/04 09:01:29;;;;;;;14.73;9.53;;;5.80;99.90;;;;;;5073246;28;20240;-55
2022/12/04 09:03:56;;;;;;;14.53;10.27;;;5.80;99.90;;;;;;5072832;28;20209;-55
2022/12/04 09:06:24;;;;;;;15.20;9.97;;;5.80;99.90;;;;;;5073276;28;20685;-56
2022/12/04 09:08:52;;;;;;;16.00;10.27;;;5.90;99.90;;;;;;5073274;28;20225;-55
2022/12/04 09:11:20;;;;;;;14.50;9.43;;;6.10;99.90;;;;;;5072737;28;20293;-55
2022/12/04 09:13:47;;;;;;;16.97;10.70;;;6.10;99.90;;;;;;5072808;28;20200;-55
2022/12/04 09:16:16;;;;;;;13.70;9.93;;;6.20;99.90;;;;;;5073627;28;20209;-55
2022/12/04 09:18:44;;;;;;;13.23;9.07;;;6.20;99.90;;;;;;5072992;28;20303;-55
2022/12/04 09:21:13;;;;;;;14.13;9.87;;;6.00;99.90;;;;;;5072986;28;20220;-55
2022/12/04 09:23:41;;;;;;;15.40;10.87;;;6.00;99.90;;;;;;5072592;28;20281;-55
2022/12/04 09:26:20;;;;;;;13.20;8.83;;;6.00;99.90;;;;;;5073044;28;20233;-55
2022/12/04 09:28:47;;;;;;;13.37;9.40;;;6.10;99.90;;;;;;5073321;28;20256;-55
2022/12/04 09:31:14;;;;;;;14.33;9.43;;;6.20;99.90;;;;;;5073064;28;20201;-54
2022/12/04 09:33:41;;;;;;;13.47;8.87;;;6.20;99.90;;;;;;5072274;28;20213;-55
2022/12/04 09:36:14;;;;;;;15.90;9.50;;;6.20;99.90;;;;;;5073063;28;20205;-55
2022/12/04 09:38:42;;;;;;;15.33;10.00;;;6.10;99.90;;;;;;5072991;28;20236;-60
2022/12/04 09:41:20;;;;;;;12.57;8.87;;;6.20;99.90;;;;;;5072158;28;20205;-57
2022/12/04 09:43:52;;;;;;;14.67;9.47;;;6.30;99.90;;;;;;5071985;28;20570;-59
2022/12/04 09:46:26;;;;;;;12.63;8.37;;;6.10;99.90;;;;;;5072622;28;20224;-60
2022/12/04 09:48:57;;;;;;;15.40;9.47;;;6.10;99.90;;;;;;5072437;28;20231;-60
2022/12/04 09:51:27;;;;;;;13.73;9.40;;;6.10;99.90;;;;;;5072247;28;20216;-61
2022/12/04 09:53:59;;;;;;;16.93;9.77;;;6.00;99.90;;;;;;5071860;28;20208;-61
2022/12/04 09:56:29;;;;;;;16.63;10.07;;;5.90;99.90;;;;;;5071818;28;20571;-61
2022/12/04 09:59:02;;;;;;;14.93;10.07;;;5.90;99.90;;;;;;5072577;28;20476;-61
2022/12/04 10:01:34;;;;;;;13.37;9.10;;;5.90;99.90;;;;;;5072038;28;20609;-60
2022/12/04 10:04:00;;;;;;;14.33;9.43;;;5.90;99.90;;;;;;5072022;28;20696;-60
2022/12/04 10:06:36;;;;;;;14.57;9.67;;;5.90;99.90;;;;;;5073175;28;20225;-60
2022/12/04 10:09:09;;;;;;;14.60;9.83;;;6.00;99.90;;;;;;5073539;28;20696;-60
2022/12/04 10:11:44;;;;;;;14.23;8.97;;;5.90;99.90;;;;;;5073033;28;20375;-60
2022/12/04 10:14:44;;;;;;;14.23;8.70;;;5.80;99.90;;;;;;5073524;28;20212;-60
2022/12/04 10:17:35;;;;;;;12.70;8.23;;;5.80;99.90;;;;;;5039470;28;20208;-60
2022/12/04 10:20:14;;;;;;;14.13;8.93;;;5.70;99.90;;;;;;5073033;28;20596;-60
2022/12/04 10:22:55;;;;;;;13.53;8.83;;;5.70;99.90;;;;;;5072744;28;20240;-60
2022/12/04 10:25:25;;;;;;;11.67;8.37;;;5.80;99.90;;;;;;5072791;28;20235;-61
2022/12/04 10:27:54;;;;;;;14.00;8.40;;;5.90;99.90;;;;;;5072507;28;20208;-60
2022/12/04 10:30:24;;;;;;;13.60;8.87;;;5.90;99.90;;;;;;5072722;28;20209;-60
2022/12/04 10:32:58;;;;;;;13.77;9.47;;;6.00;99.90;;;;;;5072189;28;20574;-60
2022/12/04 10:35:28;;;;;;;14.00;9.30;;;6.00;99.90;;;;;;5072679;28;20210;-60
2022/12/04 10:38:01;;;;;;;13.93;9.07;;;6.00;99.90;;;;;;5072693;28;20292;-60
2022/12/04 10:40:32;;;;;;;14.63;9.70;;;6.00;99.90;;;;;;5072649;28;20239;-61
2022/12/04 10:43:11;;;;;;;14.10;10.10;;;6.10;99.90;;;;;;5071936;28;20539;-60
2022/12/04 10:45:37;;;;;;;19.50;12.20;;;6.20;99.90;;;;;;5072535;28;20346;-60
2022/12/04 10:48:06;;;;;;;14.43;9.50;;;6.20;99.90;;;;;;5072651;28;20248;-60
2022/12/04 10:50:34;;;;;;;15.67;9.60;;;6.20;99.90;;;;;;5072394;28;20224;-60
2022/12/04 10:53:02;;;;;;;15.63;9.40;;;6.20;99.90;;;;;;5071183;28;20205;-60
2022/12/04 10:55:31;;;;;;;14.83;10.30;;;6.30;99.90;;;;;;5072246;28;20681;-61
2022/12/04 10:57:58;;;;;;;14.67;10.03;;;6.30;99.90;;;;;;5072348;28;20233;-61
2022/12/04 11:00:29;;;;;;;18.00;11.97;;;6.20;99.90;;;;;;5072207;28;20216;-59
2022/12/04 11:02:59;;;;;;;14.43;10.43;;;6.40;99.90;;;;;;5071822;28;20567;-58
2022/12/04 11:05:29;;;;;;;16.43;10.60;;;6.50;99.90;;;;;;5072279;28;20267;-59
2022/12/04 11:07:58;;;;;;;13.70;9.27;;;6.60;99.90;;;;;;5071863;28;20653;-61
2022/12/04 11:10:32;;;;;;;15.80;10.90;;;6.70;99.90;;;;;;5072066;28;20664;-61
2022/12/04 11:13:00;;;;;;;16.60;10.10;;;6.70;99.90;;;;;;5071617;28;20297;-61
2022/12/04 11:15:28;;;;;;;15.43;10.70;;;6.70;99.90;;;;;;5072145;28;20205;-59
2022/12/04 11:17:54;;;;;;;16.80;9.93;;;6.70;99.90;;;;;;5071716;28;20239;-59
2022/12/04 11:20:23;;;;;;;16.47;10.47;;;6.80;99.90;;;;;;5071946;28;20232;-60
2022/12/04 11:22:52;;;;;;;13.23;9.27;;;6.90;99.90;;;;;;5071557;28;20224;-58
2022/12/04 11:25:21;;;;;;;15.70;10.40;;;7.00;99.90;;;;;;5071847;28;20228;-59
2022/12/04 11:27:52;;;;;;;14.37;9.47;;;7.10;99.90;;;;;;5071604;28;20205;-59
2022/12/04 11:30:24;;;;;;;14.27;9.63;;;7.10;99.90;;;;;;5071836;28;20205;-59
2022/12/04 11:32:52;;;;;;;16.60;10.47;;;7.10;99.90;;;;;;5070696;28;20201;-59
2022/12/04 11:35:23;;;;;;;15.13;9.83;;;7.10;99.90;;;;;;5071707;28;20205;-62
2022/12/04 11:37:55;;;;;;;16.60;10.43;;;7.10;99.90;;;;;;5071689;28;20331;-59
2022/12/04 11:40:23;;;;;;;13.77;9.30;;;6.90;99.90;;;;;;5071720;28;20216;-61
2022/12/04 11:43:12;;;;;;;14.57;9.13;;;6.60;99.90;;;;;;5071565;28;20201;-60
2022/12/04 11:45:40;;;;;;;13.87;9.43;;;6.50;99.90;;;;;;5071792;28;20233;-60
2022/12/04 11:48:14;;;;;;;14.27;9.80;;;6.50;99.90;;;;;;5071848;28;20262;-59
2022/12/04 11:50:49;;;;;;;32.17;21.47;;;6.60;99.90;;;;;;5071853;28;20204;-60
2022/12/04 11:53:21;;;;;;;14.97;10.13;;;6.70;99.90;;;;;;5071188;28;20647;-60
2022/12/04 11:56:05;;;;;;;12.83;9.00;;;6.80;99.90;;;;;;5071687;28;20209;-61
2022/12/04 11:58:51;;;;;;;14.93;9.80;;;6.90;99.90;;;;;;5072212;28;20243;-60
2022/12/04 12:01:30;;;;;;;14.40;9.40;;;6.70;99.90;;;;;;5071801;28;20208;-60
2022/12/04 12:04:20;;;;;;;14.67;9.50;;;6.30;99.90;;;;;;5071313;28;20211;-60
2022/12/04 12:07:02;;;;;;;16.77;9.93;;;6.00;99.90;;;;;;5075819;28;20704;-60
2022/12/04 12:09:38;;;;;;;15.20;10.03;;;5.80;99.90;;;;;;5076225;28;20232;-60
2022/12/04 12:12:10;;;;;;;14.13;9.43;;;6.00;99.90;;;;;;5075521;28;20311;-60
2022/12/04 12:14:46;;;;;;;14.53;9.40;;;6.20;99.90;;;;;;5074793;28;20223;-60
2022/12/04 12:17:20;;;;;;;14.83;9.63;;;6.20;99.90;;;;;;5075600;28;20210;-59
2022/12/04 12:20:12;;;;;;;13.90;9.53;;;6.20;99.90;;;;;;5075842;28;20224;-60
2022/12/04 12:22:58;;;;;;;15.40;9.80;;;6.30;99.90;;;;;;5075394;28;20665;-61
2022/12/04 12:25:30;;;;;;;14.60;9.30;;;6.30;99.90;;;;;;5075718;28;20229;-60
2022/12/04 12:28:11;;;;;;;13.77;9.80;;;6.40;99.90;;;;;;5075410;28;20326;-60
2022/12/04 12:30:51;;;;;;;16.17;9.83;;;6.20;99.90;;;;;;5075420;28;20215;-61
2022/12/04 12:33:21;;;;;;;14.70;9.40;;;6.00;99.90;;;;;;5074782;28;20239;-60
2022/12/04 12:35:57;;;;;;;15.57;9.07;;;5.90;99.90;;;;;;5076112;28;20683;-60
2022/12/04 12:38:28;;;;;;;13.10;8.90;;;5.90;99.90;;;;;;5076479;28;20237;-59
2022/12/04 12:41:01;;;;;;;24.10;16.43;;;5.90;99.90;;;;;;5075904;28;20205;-60
2022/12/04 12:43:30;;;;;;;26.60;19.57;;;6.00;99.90;;;;;;5074952;28;20205;-60
2022/12/04 12:46:04;;;;;;;17.00;10.70;;;6.20;99.90;;;;;;5074873;28;20688;-60
2022/12/04 12:48:39;;;;;;;14.13;10.30;;;6.40;99.90;;;;;;5075203;28;20232;-60
2022/12/04 12:51:15;;;;;;;14.43;10.27;;;6.50;99.90;;;;;;5075586;28;20209;-60
2022/12/04 12:53:47;;;;;;;15.87;10.37;;;6.40;99.90;;;;;;5075132;28;20220;-59
2022/12/04 12:56:15;;;;;;;13.47;9.57;;;6.40;99.90;;;;;;5075345;28;20204;-60
2022/12/04 12:58:46;;;;;;;16.53;10.13;;;6.50;99.90;;;;;;5074792;28;20232;-59
2022/12/04 13:01:19;;;;;;;15.40;9.97;;;6.60;99.90;;;;;;5075058;28;20209;-62
2022/12/04 13:03:52;;;;;;;16.03;10.13;;;6.50;99.90;;;;;;5074176;28;20259;-60